createdAt,value
2019-01-16T00:00:32.049Z,10.33
2019-01-16T00:03:19.907Z,9.77
2019-01-16T00:06:00.845Z,10.73
2019-01-16T00:08:43.689Z,10.50
2019-01-16T00:11:35.556Z,12.00
2019-01-16T00:14:16.496Z,12.33
2019-01-16T00:17:04.154Z,12.20
2019-01-16T00:19:46.928Z,11.97
2019-01-16T00:22:28.966Z,13.50
2019-01-16T00:25:16.576Z,13.37
2019-01-16T00:28:05.294Z,14.00
2019-01-16T00:30:54.014Z,15.57
2019-01-16T00:33:41.372Z,12.33
2019-01-16T00:36:29.110Z,13.33
2019-01-16T00:39:21.996Z,14.20
2019-01-16T00:42:12.303Z,14.77
2019-01-16T00:45:06.932Z,15.53
2019-01-16T00:47:55.610Z,14.67
2019-01-16T00:50:53.641Z,11.90
2019-01-16T00:53:48.495Z,15.63
2019-01-16T00:56:33.810Z,14.87
2019-01-16T00:59:31.475Z,15.57
2019-01-16T01:02:29.605Z,15.13
2019-01-16T01:05:23.338Z,15.43
2019-01-16T01:08:14.434Z,14.60
2019-01-16T01:10:55.094Z,15.13
2019-01-16T01:13:56.284Z,12.40
2019-01-16T01:16:43.630Z,13.80
2019-01-16T01:19:25.663Z,13.50
2019-01-16T01:22:13.409Z,13.77
2019-01-16T01:25:11.324Z,12.23
2019-01-16T01:27:50.578Z,10.80
2019-01-16T01:30:38.241Z,12.40
2019-01-16T01:33:36.033Z,12.47
2019-01-16T01:36:17.244Z,11.77
2019-01-16T01:38:55.218Z,12.50
2019-01-16T01:41:51.485Z,11.97
2019-01-16T01:44:41.024Z,11.03
2019-01-16T01:47:27.652Z,10.27
2019-01-16T01:50:14.537Z,10.57
2019-01-16T01:53:02.293Z,11.53
2019-01-16T01:55:45.346Z,12.50
2019-01-16T01:58:31.394Z,12.47
2019-01-16T02:01:23.097Z,10.33
2019-01-16T02:04:16.083Z,12.03
2019-01-16T02:07:07.406Z,11.73
2019-01-16T02:09:46.226Z,13.03
2019-01-16T02:12:41.019Z,12.47
2019-01-16T02:15:29.929Z,13.37
2019-01-16T02:18:22.305Z,12.33
2019-01-16T02:21:08.938Z,12.77
2019-01-16T02:23:48.706Z,13.90
2019-01-16T02:26:45.616Z,14.23
2019-01-16T02:29:33.209Z,13.60
2019-01-16T02:32:31.115Z,14.70
2019-01-16T02:35:18.514Z,13.47
2019-01-16T02:37:58.088Z,13.53
2019-01-16T02:40:38.071Z,13.40
2019-01-16T02:43:25.792Z,13.50
2019-01-16T02:46:14.500Z,15.30
2019-01-16T02:48:56.243Z,12.90
2019-01-16T02:51:36.804Z,13.13
2019-01-16T02:54:25.509Z,14.70
2019-01-16T02:57:26.297Z,13.93
2019-01-16T03:00:02.150Z,14.17
2019-01-16T03:02:51.127Z,14.00
2019-01-16T03:05:36.222Z,14.03
2019-01-16T03:08:37.309Z,14.90
2019-01-16T03:11:41.308Z,16.30
2019-01-16T03:14:30.172Z,15.97
2019-01-16T03:17:19.144Z,12.97
2019-01-16T03:20:26.147Z,16.07
2019-01-16T03:23:10.361Z,16.30
2019-01-16T03:26:00.412Z,16.00
2019-01-16T03:28:52.927Z,16.87
2019-01-16T03:31:33.397Z,16.40
2019-01-16T03:34:18.182Z,16.43
2019-01-16T03:37:05.372Z,17.00
2019-01-16T03:40:03.388Z,17.20
2019-01-16T03:42:41.125Z,14.97
2019-01-16T03:45:39.131Z,17.20
2019-01-16T03:48:37.509Z,15.90
2019-01-16T03:51:26.020Z,15.20
2019-01-16T03:54:06.341Z,15.60
2019-01-16T03:57:01.759Z,17.53
2019-01-16T03:59:49.465Z,16.93
2019-01-16T04:02:28.170Z,17.40
2019-01-16T04:05:23.313Z,16.23
2019-01-16T04:08:18.191Z,18.00
2019-01-16T04:11:06.000Z,17.20
2019-01-16T04:13:53.735Z,17.83
2019-01-16T04:16:45.424Z,17.03
2019-01-16T04:19:24.172Z,17.57
2019-01-16T04:22:12.963Z,18.07
2019-01-16T04:25:00.756Z,17.00
2019-01-16T04:27:44.167Z,17.73
2019-01-16T04:30:39.225Z,17.67
2019-01-16T04:33:31.706Z,17.47
2019-01-16T04:36:20.385Z,17.63
2019-01-16T04:39:07.916Z,16.87
2019-01-16T04:41:50.674Z,18.10
2019-01-16T04:44:42.579Z,16.27
2019-01-16T04:47:20.539Z,18.53
2019-01-16T04:50:04.496Z,17.10
2019-01-16T04:52:59.602Z,16.70
2019-01-16T04:55:51.187Z,17.10
2019-01-16T04:58:38.920Z,17.10
2019-01-16T05:01:19.795Z,17.70
2019-01-16T05:04:07.888Z,15.07
2019-01-16T05:06:52.824Z,17.87
2019-01-16T05:09:50.868Z,17.60
2019-01-16T05:12:38.399Z,17.33
2019-01-16T05:15:14.716Z,16.93
2019-01-16T05:18:02.250Z,17.37
2019-01-16T05:20:50.997Z,17.90
2019-01-16T05:23:38.396Z,18.30
2019-01-16T05:26:19.970Z,19.00
2019-01-16T05:29:04.441Z,17.23
2019-01-16T05:31:50.697Z,17.80
2019-01-16T05:34:44.393Z,17.87
2019-01-16T05:37:41.077Z,16.07
2019-01-16T05:40:25.789Z,18.33
2019-01-16T05:43:13.295Z,18.13
2019-01-16T05:46:11.653Z,18.17
2019-01-16T05:48:53.677Z,17.50
2019-01-16T05:51:56.531Z,19.00
2019-01-16T05:54:49.030Z,17.93
2019-01-16T05:57:47.291Z,19.20
2019-01-16T06:00:39.306Z,18.73
2019-01-16T06:03:38.132Z,19.20
2019-01-16T06:06:27.765Z,19.50
2019-01-16T06:09:17.149Z,20.37
2019-01-16T06:12:00.731Z,19.73
2019-01-16T06:14:48.659Z,20.57
2019-01-16T06:17:29.690Z,20.17
2019-01-16T06:20:18.295Z,19.87
2019-01-16T06:23:04.115Z,20.17
2019-01-16T06:25:56.815Z,21.37
2019-01-16T06:28:36.791Z,22.17
2019-01-16T06:31:26.568Z,21.93
2019-01-16T06:34:14.704Z,20.77
2019-01-16T06:36:58.815Z,20.30
2019-01-16T06:39:48.611Z,20.70
2019-01-16T06:42:44.319Z,20.40
2019-01-16T06:45:28.509Z,21.70
2019-01-16T06:48:36.568Z,22.00
2019-01-16T06:51:23.457Z,21.40
2019-01-16T06:54:03.934Z,21.50
2019-01-16T06:56:54.660Z,22.30
2019-01-16T06:59:36.962Z,21.40
2019-01-16T07:02:32.475Z,23.07
2019-01-16T07:05:31.889Z,22.37
2019-01-16T07:08:37.403Z,24.23
2019-01-16T07:11:26.193Z,23.30
2019-01-16T07:14:14.475Z,24.73
2019-01-16T07:17:03.554Z,25.20
2019-01-16T07:19:51.758Z,25.67
2019-01-16T07:22:39.782Z,27.07
2019-01-16T07:25:38.941Z,26.13
2019-01-16T07:28:23.078Z,26.97
2019-01-16T07:31:05.120Z,28.00
2019-01-16T07:34:12.749Z,28.33
2019-01-16T07:37:00.143Z,27.30
2019-01-16T07:39:46.822Z,27.77
2019-01-16T07:42:29.014Z,27.87
2019-01-16T07:45:16.394Z,27.80
2019-01-16T07:48:01.621Z,29.27
2019-01-16T07:50:56.455Z,29.43
2019-01-16T07:53:51.274Z,31.23
2019-01-16T07:56:27.597Z,28.57
2019-01-16T07:59:21.905Z,27.20
2019-01-16T08:02:10.216Z,30.70
2019-01-16T08:04:54.795Z,29.27
2019-01-16T08:07:42.806Z,28.07
2019-01-16T08:10:44.087Z,28.33
2019-01-16T08:13:31.753Z,28.37
2019-01-16T08:16:25.692Z,27.90
2019-01-16T08:19:10.707Z,28.57
2019-01-16T08:21:59.034Z,28.10
2019-01-16T08:24:57.105Z,27.53
2019-01-16T08:27:44.766Z,27.50
2019-01-16T08:30:32.668Z,28.40
2019-01-16T08:33:36.849Z,28.73
2019-01-16T08:36:20.730Z,27.47
2019-01-16T08:39:12.458Z,28.63
2019-01-16T08:41:59.893Z,26.53
2019-01-16T08:44:38.992Z,27.17
2019-01-16T08:47:29.509Z,28.23
2019-01-16T08:50:24.639Z,26.07
2019-01-16T08:53:08.855Z,26.33
2019-01-16T08:55:55.974Z,25.73
2019-01-16T08:58:44.264Z,24.87
2019-01-16T09:01:43.016Z,25.77
2019-01-16T09:04:30.492Z,25.60
2019-01-16T09:07:22.775Z,24.03
2019-01-16T09:10:08.698Z,23.27
2019-01-16T09:12:50.790Z,21.87
2019-01-16T09:15:54.970Z,22.83
2019-01-16T09:18:47.448Z,22.80
2019-01-16T09:21:26.479Z,21.63
2019-01-16T09:24:21.825Z,21.43
2019-01-16T09:27:04.246Z,22.00
2019-01-16T09:29:48.037Z,20.90
2019-01-16T09:32:40.035Z,21.73
2019-01-16T09:35:20.802Z,20.73
2019-01-16T09:38:15.678Z,20.27
2019-01-16T09:41:19.526Z,19.93
2019-01-16T09:43:56.446Z,19.77
2019-01-16T09:46:36.386Z,20.27
2019-01-16T09:49:16.349Z,19.77
2019-01-16T09:52:05.441Z,18.30
2019-01-16T09:54:52.896Z,19.00
2019-01-16T09:57:38.357Z,19.70
2019-01-16T10:00:27.316Z,18.67
2019-01-16T10:03:19.144Z,19.13
2019-01-16T10:06:07.844Z,16.93
2019-01-16T10:08:46.493Z,17.37
2019-01-16T10:11:33.921Z,17.83
2019-01-16T10:14:21.678Z,17.27
2019-01-16T10:16:59.458Z,16.43
2019-01-16T10:19:41.861Z,15.80
2019-01-16T10:22:29.204Z,16.60
2019-01-16T10:25:17.926Z,16.67
2019-01-16T10:28:05.474Z,16.67
2019-01-16T10:30:52.179Z,16.93
2019-01-16T10:33:38.627Z,16.67
2019-01-16T10:36:16.594Z,17.40
2019-01-16T10:39:02.280Z,16.87
2019-01-16T10:41:50.820Z,15.63
2019-01-16T10:44:28.081Z,16.67
2019-01-16T10:47:15.614Z,16.03
2019-01-16T10:49:57.547Z,14.90
2019-01-16T10:52:45.160Z,16.00
2019-01-16T10:55:39.984Z,16.40
2019-01-16T10:58:31.809Z,16.07
2019-01-16T11:01:23.617Z,16.50
2019-01-16T11:04:15.217Z,16.97
2019-01-16T11:07:07.156Z,16.20
2019-01-16T11:10:05.605Z,17.27
2019-01-16T11:13:03.151Z,18.10
2019-01-16T11:16:10.375Z,18.07
2019-01-16T11:19:08.297Z,19.27
2019-01-16T11:21:57.413Z,20.97
2019-01-16T11:24:44.973Z,20.30
2019-01-16T11:27:33.609Z,19.80
2019-01-16T11:30:25.480Z,20.47
2019-01-16T11:33:23.016Z,22.13
2019-01-16T11:36:22.666Z,23.13
2019-01-16T11:39:03.821Z,21.23
2019-01-16T11:42:06.236Z,22.20
2019-01-16T11:44:58.058Z,22.07
2019-01-16T11:47:46.149Z,23.10
2019-01-16T11:50:27.356Z,22.07
2019-01-16T11:53:20.224Z,23.17
2019-01-16T11:56:08.932Z,24.67
2019-01-16T11:58:50.560Z,26.80
2019-01-16T12:01:40.906Z,26.10
2019-01-16T12:04:33.612Z,29.80
2019-01-16T12:07:16.032Z,24.63
2019-01-16T12:10:13.871Z,23.70
2019-01-16T12:13:11.312Z,22.60
2019-01-16T12:16:18.682Z,22.37
2019-01-16T12:19:16.672Z,22.77
2019-01-16T12:22:04.613Z,23.07
2019-01-16T12:24:53.326Z,22.20
2019-01-16T12:27:54.380Z,22.97
2019-01-16T12:30:43.466Z,22.10
2019-01-16T12:33:41.329Z,21.07
2019-01-16T12:36:41.929Z,22.00
2019-01-16T12:39:29.752Z,22.87
2019-01-16T12:42:10.512Z,23.17
2019-01-16T12:45:08.428Z,24.07
2019-01-16T12:47:47.245Z,23.53
2019-01-16T12:50:39.394Z,19.87
2019-01-16T12:53:26.915Z,22.40
2019-01-16T12:56:18.452Z,21.77
2019-01-16T12:59:05.885Z,22.00
2019-01-16T13:01:54.318Z,23.63
2019-01-16T13:04:36.676Z,24.07
2019-01-16T13:07:18.109Z,24.20
2019-01-16T13:09:58.478Z,23.93
2019-01-16T13:12:51.767Z,24.00
2019-01-16T13:15:31.824Z,24.13
2019-01-16T13:18:13.590Z,24.53
2019-01-16T13:21:01.278Z,23.73
2019-01-16T13:23:49.984Z,24.57
2019-01-16T13:26:39.184Z,24.53
2019-01-16T13:29:26.620Z,24.37
2019-01-16T13:32:21.279Z,25.43
2019-01-16T13:35:13.042Z,23.07
2019-01-16T13:38:06.454Z,23.83
2019-01-16T13:40:57.685Z,24.17
2019-01-16T13:43:42.389Z,23.13
2019-01-16T13:46:43.057Z,22.93
2019-01-16T13:49:26.929Z,22.77
2019-01-16T13:52:05.301Z,22.87
2019-01-16T13:55:09.408Z,21.93
2019-01-16T13:58:01.041Z,22.43
2019-01-16T14:01:01.850Z,21.33
2019-01-16T14:03:39.441Z,22.57
2019-01-16T14:06:19.095Z,22.57
2019-01-16T14:08:58.831Z,20.67
2019-01-16T14:11:46.319Z,22.53
2019-01-16T14:14:40.824Z,22.43
2019-01-16T14:17:35.789Z,20.27
2019-01-16T14:20:30.527Z,20.30
2019-01-16T14:23:18.472Z,21.70
2019-01-16T14:26:16.423Z,23.07
2019-01-16T14:29:11.674Z,22.33
2019-01-16T14:32:11.106Z,21.37
2019-01-16T14:34:58.981Z,20.80
2019-01-16T14:37:45.188Z,18.70
2019-01-16T14:40:27.504Z,18.33
2019-01-16T14:43:18.836Z,16.27
2019-01-16T14:46:22.531Z,17.77
2019-01-16T14:49:10.030Z,18.10
2019-01-16T14:52:04.694Z,18.20
2019-01-16T14:54:56.505Z,18.80
2019-01-16T14:57:44.261Z,20.23
2019-01-16T15:00:45.848Z,18.83
2019-01-16T15:03:34.704Z,19.77
2019-01-16T15:06:42.249Z,18.70
2019-01-16T15:09:34.105Z,18.33
2019-01-16T15:12:21.880Z,18.77
2019-01-16T15:15:02.777Z,20.43
2019-01-16T15:17:56.551Z,18.57
2019-01-16T15:21:00.506Z,18.90
2019-01-16T15:23:41.602Z,18.93
2019-01-16T15:26:24.780Z,18.03
2019-01-16T15:29:13.842Z,17.83
2019-01-16T15:32:02.870Z,16.13
2019-01-16T15:34:51.568Z,16.53
2019-01-16T15:37:49.477Z,16.27
2019-01-16T15:40:44.592Z,17.87
2019-01-16T15:43:21.427Z,19.50
2019-01-16T15:46:14.116Z,20.53
2019-01-16T15:49:09.118Z,22.63
2019-01-16T15:51:52.659Z,23.63
2019-01-16T15:54:40.429Z,22.87
2019-01-16T15:57:36.339Z,21.90
2019-01-16T16:00:21.438Z,21.07
2019-01-16T16:03:05.217Z,22.57
2019-01-16T16:05:53.207Z,22.37
2019-01-16T16:08:42.705Z,22.73
2019-01-16T16:11:43.762Z,20.03
2019-01-16T16:14:31.184Z,17.83
2019-01-16T16:17:20.012Z,19.07
2019-01-16T16:20:07.736Z,21.17
2019-01-16T16:22:55.819Z,17.20
2019-01-16T16:25:44.529Z,16.60
2019-01-16T16:28:48.804Z,15.83
2019-01-16T16:31:37.504Z,15.57
2019-01-16T16:34:25.389Z,16.50
2019-01-16T16:37:17.217Z,19.13
2019-01-16T16:40:09.049Z,38.17
2019-01-16T16:43:05.995Z,36.40
2019-01-16T16:45:51.368Z,36.50
2019-01-16T16:48:40.090Z,20.83
2019-01-16T16:51:25.904Z,21.57
2019-01-16T16:54:13.692Z,24.77
2019-01-16T16:56:51.444Z,22.13
2019-01-16T16:59:30.612Z,22.33
2019-01-16T17:02:18.653Z,23.03
2019-01-16T17:05:07.435Z,22.47
2019-01-16T17:07:45.233Z,23.23
2019-01-16T17:10:46.049Z,22.73
2019-01-16T17:13:48.129Z,24.10
2019-01-16T17:16:32.706Z,25.43
2019-01-16T17:19:14.311Z,26.67
2019-01-16T17:22:19.382Z,26.30
2019-01-16T17:25:07.466Z,23.57
2019-01-16T17:27:45.892Z,26.53
2019-01-16T17:30:35.680Z,27.77
2019-01-16T17:33:11.743Z,27.13
2019-01-16T17:36:13.660Z,28.80
2019-01-16T17:39:01.514Z,28.73
2019-01-16T17:41:42.990Z,29.37
2019-01-16T17:44:34.583Z,29.40
2019-01-16T17:47:29.662Z,30.50
2019-01-16T17:50:18.370Z,30.00
2019-01-16T17:53:13.836Z,31.50
2019-01-16T17:56:11.656Z,29.63
2019-01-16T17:59:03.342Z,30.30
2019-01-16T18:02:07.735Z,29.00
2019-01-16T18:05:00.165Z,28.13
2019-01-16T18:07:51.130Z,27.67
2019-01-16T18:10:31.731Z,27.80
2019-01-16T18:13:20.512Z,26.23
2019-01-16T18:16:21.575Z,27.17
2019-01-16T18:19:05.040Z,26.60
2019-01-16T18:21:47.169Z,24.50
2019-01-16T18:24:45.404Z,25.30
2019-01-16T18:27:42.129Z,25.57
2019-01-16T18:30:32.753Z,25.60
2019-01-16T18:33:22.069Z,24.70
2019-01-16T18:36:23.065Z,24.40
2019-01-16T18:39:10.572Z,25.17
2019-01-16T18:41:58.296Z,24.40
2019-01-16T18:44:46.009Z,25.10
2019-01-16T18:47:38.777Z,22.47
2019-01-16T18:50:28.275Z,23.13
2019-01-16T18:53:18.417Z,24.20
2019-01-16T18:55:57.354Z,24.40
2019-01-16T18:58:38.820Z,23.83
2019-01-16T19:01:33.643Z,21.33
2019-01-16T19:04:11.945Z,22.30
2019-01-16T19:07:12.390Z,23.50
2019-01-16T19:09:53.020Z,22.87
2019-01-16T19:12:36.075Z,21.90
2019-01-16T19:15:33.104Z,22.20
2019-01-16T19:18:20.692Z,21.97
2019-01-16T19:21:08.474Z,22.00
2019-01-16T19:24:00.744Z,21.37
2019-01-16T19:27:01.694Z,20.67
2019-01-16T19:29:45.314Z,19.23
2019-01-16T19:32:43.172Z,18.87
2019-01-16T19:35:50.280Z,20.10
2019-01-16T19:38:37.896Z,19.13
2019-01-16T19:41:25.275Z,18.63
2019-01-16T19:44:20.593Z,16.50
2019-01-16T19:47:01.617Z,17.67
2019-01-16T19:49:49.309Z,16.00
2019-01-16T19:52:47.526Z,18.17
2019-01-16T19:55:42.126Z,18.03
2019-01-16T19:58:36.620Z,18.13
2019-01-16T20:01:19.452Z,18.53
2019-01-16T20:04:13.561Z,19.83
2019-01-16T20:07:11.174Z,20.10
2019-01-16T20:10:09.289Z,21.47
2019-01-16T20:13:03.825Z,20.83
2019-01-16T20:15:46.978Z,21.73
2019-01-16T20:18:38.458Z,22.53
2019-01-16T20:21:26.983Z,22.90
2019-01-16T20:24:23.808Z,20.70
2019-01-16T20:27:11.516Z,23.13
2019-01-16T20:29:51.684Z,23.87
2019-01-16T20:32:39.614Z,22.90
2019-01-16T20:35:31.475Z,24.40
2019-01-16T20:38:29.555Z,23.10
2019-01-16T20:41:09.480Z,23.23
2019-01-16T20:44:01.056Z,23.97
2019-01-16T20:46:52.864Z,23.13
2019-01-16T20:49:53.485Z,22.30
2019-01-16T20:52:40.905Z,23.07
2019-01-16T20:55:21.412Z,23.33
2019-01-16T20:58:04.610Z,22.23
2019-01-16T21:00:53.380Z,21.93
2019-01-16T21:03:51.213Z,22.63
2019-01-16T21:06:48.755Z,22.70
2019-01-16T21:09:31.880Z,23.07
2019-01-16T21:12:22.412Z,22.87
2019-01-16T21:15:00.239Z,23.17
2019-01-16T21:17:39.144Z,23.70
2019-01-16T21:20:28.186Z,22.30
2019-01-16T21:23:15.897Z,20.63
2019-01-16T21:26:03.612Z,22.93
2019-01-16T21:28:52.322Z,22.43
2019-01-16T21:31:38.639Z,23.00
2019-01-16T21:34:23.717Z,21.77
2019-01-16T21:37:12.691Z,23.07
2019-01-16T21:39:59.108Z,22.23
2019-01-16T21:43:00.046Z,22.77
2019-01-16T21:45:40.545Z,20.87
2019-01-16T21:48:27.437Z,23.23
2019-01-16T21:51:25.993Z,22.07
2019-01-16T21:54:13.484Z,22.63
2019-01-16T21:57:01.113Z,22.90
2019-01-16T21:59:44.797Z,23.17
2019-01-16T22:02:27.018Z,22.83
2019-01-16T22:05:14.765Z,21.30
2019-01-16T22:07:54.723Z,22.30
2019-01-16T22:10:42.145Z,23.10
2019-01-16T22:13:35.873Z,23.40
2019-01-16T22:16:16.848Z,24.00
2019-01-16T22:18:55.260Z,23.90
2019-01-16T22:21:43.304Z,23.20
2019-01-16T22:24:44.225Z,24.90
2019-01-16T22:27:37.214Z,24.57
2019-01-16T22:30:24.738Z,25.10
2019-01-16T22:33:02.975Z,26.43
2019-01-16T22:35:52.320Z,24.70
2019-01-16T22:38:47.658Z,26.17
2019-01-16T22:41:35.544Z,26.77
2019-01-16T22:44:42.499Z,26.23
2019-01-16T22:47:25.475Z,26.27
2019-01-16T22:50:13.237Z,26.00
2019-01-16T22:53:02.067Z,25.80
2019-01-16T22:55:58.927Z,25.00
2019-01-16T22:58:51.072Z,25.10
2019-01-16T23:01:30.497Z,25.20
2019-01-16T23:04:25.606Z,24.30
2019-01-16T23:07:14.403Z,26.50
2019-01-16T23:09:50.000Z,27.43
2019-01-16T23:12:41.552Z,25.77
2019-01-16T23:15:36.304Z,26.67
2019-01-16T23:18:22.442Z,26.07
2019-01-16T23:21:26.596Z,25.20
2019-01-16T23:24:06.555Z,29.00
2019-01-16T23:26:54.454Z,26.20
2019-01-16T23:29:29.989Z,25.47
2019-01-16T23:32:08.203Z,29.27
2019-01-16T23:34:57.079Z,28.03
2019-01-16T23:37:36.823Z,27.00
2019-01-16T23:40:15.846Z,27.13
2019-01-16T23:43:04.566Z,26.57
2019-01-16T23:45:52.066Z,28.03
2019-01-16T23:48:37.623Z,25.00
2019-01-16T23:51:44.897Z,27.57
2019-01-16T23:54:32.399Z,26.70
2019-01-16T23:57:22.423Z,27.13
